createdAt,value
2017-03-09T00:01:03.192Z,12
2017-03-09T00:02:16.542Z,12
2017-03-09T00:03:30.062Z,12
2017-03-09T00:04:43.397Z,12
2017-03-09T00:05:56.709Z,12
2017-03-09T00:07:10.262Z,12
2017-03-09T00:08:24.785Z,12
2017-03-09T00:09:38.115Z,12
2017-03-09T00:10:51.446Z,12
2017-03-09T00:12:04.778Z,12
2017-03-09T00:13:18.108Z,12
2017-03-09T00:14:31.434Z,12
2017-03-09T00:15:44.188Z,12
2017-03-09T00:16:57.524Z,12
2017-03-09T00:18:10.848Z,12
2017-03-09T00:19:24.440Z,12
2017-03-09T00:20:37.755Z,12
2017-03-09T00:21:51.092Z,12
2017-03-09T00:23:05.057Z,12
2017-03-09T00:24:18.389Z,12
2017-03-09T00:25:31.205Z,12
2017-03-09T00:26:58.677Z,12
2017-03-09T00:28:12.027Z,12
2017-03-09T00:29:25.353Z,12
2017-03-09T00:30:38.420Z,12
2017-03-09T00:31:51.164Z,12
2017-03-09T00:33:04.480Z,12
2017-03-09T00:34:31.744Z,12
2017-03-09T00:35:45.075Z,12
2017-03-09T00:36:58.405Z,12
2017-03-09T00:38:11.177Z,12
2017-03-09T00:39:24.525Z,12
2017-03-09T00:40:37.859Z,12
2017-03-09T00:41:51.199Z,12
2017-03-09T00:43:04.534Z,12
2017-03-09T00:44:17.872Z,12
2017-03-09T00:45:31.202Z,12
2017-03-09T00:46:44.522Z,12
2017-03-09T00:47:57.858Z,12
2017-03-09T00:50:38.458Z,12
2017-03-09T00:52:05.935Z,12
2017-03-09T00:53:19.293Z,12
2017-03-09T00:54:32.599Z,12
2017-03-09T00:55:45.940Z,12
2017-03-09T00:56:59.517Z,12
2017-03-09T00:58:12.275Z,12
2017-03-09T00:59:25.577Z,12
2017-03-09T01:00:38.935Z,12
2017-03-09T01:01:52.328Z,12
2017-03-09T01:03:05.678Z,12
2017-03-09T01:04:19.043Z,12
2017-03-09T01:05:32.392Z,12
2017-03-09T01:06:45.724Z,12
2017-03-09T01:07:59.252Z,12
2017-03-09T01:11:07.800Z,12
2017-03-09T01:12:21.124Z,12
2017-03-09T01:13:34.439Z,12
2017-03-09T01:14:47.864Z,12
2017-03-09T01:16:01.409Z,12
2017-03-09T01:17:14.176Z,12
2017-03-09T01:18:27.478Z,12
2017-03-09T01:19:40.805Z,12
2017-03-09T01:20:54.141Z,12
2017-03-09T01:22:21.445Z,12
2017-03-09T01:23:34.208Z,12
2017-03-09T01:24:47.537Z,12
2017-03-09T01:26:00.888Z,12
2017-03-09T01:27:13.682Z,4
2017-03-09T01:28:27.052Z,12
2017-03-09T01:29:40.597Z,12
2017-03-09T01:31:07.897Z,12
2017-03-09T01:32:20.747Z,12
2017-03-09T01:33:48.073Z,12
2017-03-09T01:35:01.413Z,12
2017-03-09T01:36:14.747Z,8
2017-03-09T01:37:27.513Z,8
2017-03-09T01:38:40.855Z,8
2017-03-09T01:39:54.178Z,12
2017-03-09T01:41:07.575Z,12
2017-03-09T01:42:20.888Z,12
2017-03-09T01:43:34.220Z,12
2017-03-09T01:44:47.006Z,8
2017-03-09T01:46:00.359Z,12
2017-03-09T01:47:13.697Z,12
2017-03-09T01:48:26.441Z,12
2017-03-09T01:49:39.810Z,8
2017-03-09T01:50:53.357Z,12
2017-03-09T01:52:06.712Z,12
2017-03-09T01:53:20.078Z,8
2017-03-09T01:54:33.452Z,12
2017-03-09T01:55:46.821Z,12
2017-03-09T01:57:00.354Z,12
2017-03-09T01:58:13.120Z,12
2017-03-09T01:59:26.442Z,12
2017-03-09T02:00:39.789Z,12
2017-03-09T02:01:53.341Z,12
2017-03-09T02:04:34.189Z,12
2017-03-09T02:06:01.483Z,12
2017-03-09T02:07:15.030Z,12
2017-03-09T02:08:28.593Z,12
2017-03-09T02:09:41.903Z,12
2017-03-09T02:10:55.454Z,12
2017-03-09T02:12:08.968Z,12
2017-03-09T02:13:21.910Z,12
2017-03-09T02:14:35.248Z,12
2017-03-09T02:17:15.582Z,12
2017-03-09T02:18:28.352Z,12
2017-03-09T02:19:41.691Z,12
2017-03-09T02:20:55.061Z,12
2017-03-09T02:22:08.383Z,12
2017-03-09T02:23:21.160Z,12
2017-03-09T02:24:48.481Z,12
2017-03-09T02:26:01.789Z,12
2017-03-09T02:27:15.193Z,12
2017-03-09T02:28:28.394Z,12
2017-03-09T02:29:42.028Z,12
2017-03-09T02:30:55.738Z,12
2017-03-09T02:33:36.590Z,12
2017-03-09T02:34:50.285Z,12
2017-03-09T02:37:30.598Z,12
2017-03-09T02:38:43.598Z,12
2017-03-09T02:39:56.976Z,12
2017-03-09T02:41:10.347Z,12
2017-03-09T02:42:23.132Z,12
2017-03-09T02:43:37.650Z,12
2017-03-09T02:44:51.009Z,12
2017-03-09T02:46:03.759Z,12
2017-03-09T02:47:17.104Z,12
2017-03-09T02:48:30.448Z,12
2017-03-09T02:49:43.777Z,12
2017-03-09T02:50:57.120Z,12
2017-03-09T02:52:10.481Z,12
2017-03-09T02:53:23.817Z,12
2017-03-09T02:54:36.630Z,12
2017-03-09T02:55:49.991Z,12
2017-03-09T02:57:03.332Z,12
2017-03-09T02:58:16.102Z,12
2017-03-09T02:59:29.447Z,12
2017-03-09T03:00:42.377Z,12
2017-03-09T03:01:55.725Z,12
2017-03-09T03:03:09.254Z,12
2017-03-09T03:04:22.611Z,12
2017-03-09T03:05:36.171Z,12
2017-03-09T03:06:49.535Z,12
2017-03-09T03:08:01.729Z,12
2017-03-09T03:09:15.064Z,12
2017-03-09T03:10:27.824Z,12
2017-03-09T03:11:40.750Z,12
2017-03-09T03:12:54.096Z,12
2017-03-09T03:14:07.444Z,12
2017-03-09T03:15:20.768Z,12
2017-03-09T03:16:34.303Z,12
2017-03-09T03:17:47.084Z,12
2017-03-09T03:20:27.788Z,12
2017-03-09T03:21:41.426Z,12
2017-03-09T03:22:54.755Z,12
2017-03-09T03:24:08.472Z,12
2017-03-09T03:25:21.239Z,12
2017-03-09T03:26:34.003Z,12
2017-03-09T03:27:47.522Z,12
2017-03-09T03:29:00.888Z,12
2017-03-09T03:30:14.255Z,12
2017-03-09T03:31:26.432Z,12
2017-03-09T03:32:39.189Z,12
2017-03-09T03:33:52.528Z,12
2017-03-09T03:35:05.861Z,12
2017-03-09T03:36:19.240Z,12
2017-03-09T03:37:32.571Z,12
2017-03-09T03:38:45.307Z,12
2017-03-09T03:39:59.076Z,12
2017-03-09T03:41:12.414Z,12
2017-03-09T03:42:25.735Z,12
2017-03-09T03:43:39.294Z,12
2017-03-09T03:44:52.611Z,12
2017-03-09T03:46:05.936Z,12
2017-03-09T03:47:19.271Z,12
2017-03-09T03:48:32.627Z,12
2017-03-09T03:49:45.958Z,12
2017-03-09T03:50:59.260Z,12
2017-03-09T03:52:12.598Z,12
2017-03-09T03:53:25.339Z,12
2017-03-09T03:54:38.873Z,12
2017-03-09T03:55:52.195Z,12
2017-03-09T03:57:05.528Z,12
2017-03-09T03:58:18.863Z,12
2017-03-09T03:59:32.178Z,12
2017-03-09T04:00:45.502Z,12
2017-03-09T04:01:58.833Z,12
2017-03-09T04:03:12.887Z,12
2017-03-09T04:04:26.220Z,12
2017-03-09T04:05:39.203Z,12
2017-03-09T04:08:33.796Z,12
2017-03-09T04:09:47.110Z,12
2017-03-09T04:11:00.098Z,12
2017-03-09T04:12:27.426Z,12
2017-03-09T04:13:40.727Z,12
2017-03-09T04:14:54.052Z,12
2017-03-09T04:16:07.384Z,12
2017-03-09T04:17:20.708Z,12
2017-03-09T04:18:34.039Z,12
2017-03-09T04:19:47.362Z,12
2017-03-09T04:21:00.901Z,12
2017-03-09T04:22:14.229Z,12
2017-03-09T04:23:27.571Z,12
2017-03-09T04:24:54.833Z,12
2017-03-09T04:26:08.156Z,12
2017-03-09T04:27:21.479Z,12
2017-03-09T04:28:48.754Z,12
2017-03-09T04:30:02.081Z,12
2017-03-09T04:31:15.387Z,12
2017-03-09T04:32:26.986Z,12
2017-03-09T04:33:40.310Z,12
2017-03-09T04:34:53.602Z,12
2017-03-09T04:36:06.329Z,12
2017-03-09T04:37:19.372Z,12
2017-03-09T04:38:32.685Z,12
2017-03-09T04:39:45.990Z,12
2017-03-09T04:40:59.349Z,12
2017-03-09T04:42:12.796Z,12
2017-03-09T04:43:25.522Z,12
2017-03-09T04:44:38.245Z,12
2017-03-09T04:45:51.571Z,12
2017-03-09T04:47:05.177Z,12
2017-03-09T04:49:45.754Z,12
2017-03-09T04:50:59.071Z,12
2017-03-09T04:52:12.381Z,12
2017-03-09T04:53:25.677Z,12
2017-03-09T04:54:38.984Z,12
2017-03-09T04:55:51.710Z,12
2017-03-09T04:57:19.164Z,12
2017-03-09T04:58:32.454Z,12
2017-03-09T04:59:45.737Z,12
2017-03-09T05:00:59.038Z,12
2017-03-09T05:02:12.315Z,12
2017-03-09T05:03:25.594Z,12
2017-03-09T05:04:38.889Z,12
2017-03-09T05:05:52.193Z,12
2017-03-09T05:07:05.471Z,12
2017-03-09T05:08:32.936Z,12
2017-03-09T05:10:00.188Z,12
2017-03-09T05:12:40.725Z,12
2017-03-09T05:13:54.211Z,12
2017-03-09T05:15:07.510Z,12
2017-03-09T05:16:20.807Z,12
2017-03-09T05:19:00.776Z,12
2017-03-09T05:20:14.072Z,12
2017-03-09T05:21:40.771Z,12
2017-03-09T05:24:21.301Z,12
2017-03-09T05:25:34.608Z,12
2017-03-09T05:26:47.327Z,12
2017-03-09T05:28:00.615Z,12
2017-03-09T05:29:14.105Z,12
2017-03-09T05:30:26.819Z,12
2017-03-09T05:31:39.523Z,12
2017-03-09T05:32:52.234Z,12
2017-03-09T05:34:05.519Z,12
2017-03-09T05:35:19.100Z,12
2017-03-09T05:36:31.815Z,12
2017-03-09T05:37:45.078Z,12
2017-03-09T05:38:58.356Z,12
2017-03-09T05:40:11.094Z,12
2017-03-09T05:41:24.382Z,12
2017-03-09T05:42:37.666Z,12
2017-03-09T05:43:50.386Z,12
2017-03-09T05:45:03.713Z,12
2017-03-09T05:46:17.178Z,12
2017-03-09T05:47:29.878Z,12
2017-03-09T05:48:43.160Z,12
2017-03-09T05:49:56.429Z,12
2017-03-09T05:51:08.787Z,12
2017-03-09T05:52:22.057Z,12
2017-03-09T05:53:35.356Z,12
2017-03-09T05:54:48.655Z,12
2017-03-09T05:56:01.959Z,12
2017-03-09T05:57:15.529Z,12
2017-03-09T05:58:28.815Z,12
2017-03-09T05:59:42.101Z,12
2017-03-09T06:00:54.850Z,12
2017-03-09T06:02:08.325Z,12
2017-03-09T06:03:21.611Z,12
2017-03-09T06:04:34.886Z,12
2017-03-09T06:05:48.150Z,12
2017-03-09T06:07:01.428Z,12
2017-03-09T06:08:14.361Z,12
2017-03-09T06:09:27.066Z,12
2017-03-09T06:10:39.794Z,12
2017-03-09T06:12:07.083Z,12
2017-03-09T06:13:20.566Z,12
2017-03-09T06:14:33.273Z,12
2017-03-09T06:15:45.986Z,12
2017-03-09T06:18:26.259Z,12
2017-03-09T06:19:39.544Z,12
2017-03-09T06:20:52.842Z,12
2017-03-09T06:22:05.541Z,12
2017-03-09T06:23:33.117Z,12
2017-03-09T06:24:46.388Z,12
2017-03-09T06:25:59.661Z,12
2017-03-09T06:27:12.374Z,12
2017-03-09T06:28:25.684Z,12
2017-03-09T06:29:39.177Z,12
2017-03-09T06:30:52.455Z,12
2017-03-09T06:32:05.744Z,12
2017-03-09T06:33:18.448Z,12
2017-03-09T06:34:31.714Z,12
2017-03-09T06:35:44.990Z,12
2017-03-09T06:36:58.270Z,12
2017-03-09T06:38:11.545Z,12
2017-03-09T06:39:24.246Z,12
2017-03-09T06:40:37.837Z,12
2017-03-09T06:41:50.559Z,12
2017-03-09T06:43:03.838Z,12
2017-03-09T06:44:17.128Z,12
2017-03-09T06:46:57.661Z,12
2017-03-09T06:48:10.381Z,12
2017-03-09T06:49:23.143Z,12
2017-03-09T06:50:35.843Z,12
2017-03-09T06:52:03.101Z,12
2017-03-09T06:53:15.814Z,12
2017-03-09T06:54:29.088Z,12
2017-03-09T06:55:42.383Z,12
2017-03-09T06:56:55.676Z,12
2017-03-09T06:58:08.964Z,12
2017-03-09T06:59:21.676Z,12
2017-03-09T07:00:34.963Z,12
2017-03-09T07:01:47.704Z,12
2017-03-09T07:03:00.422Z,12
2017-03-09T07:04:13.697Z,12
2017-03-09T07:05:26.987Z,12
2017-03-09T07:06:40.043Z,12
2017-03-09T07:07:53.344Z,12
2017-03-09T07:09:06.627Z,12
2017-03-09T07:10:19.936Z,12
2017-03-09T07:11:33.410Z,12
2017-03-09T07:12:46.725Z,12
2017-03-09T07:13:59.993Z,12
2017-03-09T07:15:13.298Z,12
2017-03-09T07:16:26.572Z,12
2017-03-09T07:17:53.825Z,12
2017-03-09T07:19:06.551Z,12
2017-03-09T07:20:19.819Z,12
2017-03-09T07:21:32.539Z,12
2017-03-09T07:22:45.831Z,12
2017-03-09T07:26:53.050Z,12
2017-03-09T07:28:06.320Z,12
2017-03-09T07:29:19.042Z,12
2017-03-09T07:30:31.764Z,12
2017-03-09T07:31:44.474Z,12
2017-03-09T07:33:11.724Z,12
2017-03-09T07:34:24.432Z,12
2017-03-09T07:35:37.711Z,12
2017-03-09T07:36:50.980Z,12
2017-03-09T07:38:04.245Z,12
2017-03-09T07:39:17.726Z,12
2017-03-09T07:40:31.009Z,12
2017-03-09T07:41:44.286Z,12
2017-03-09T07:42:57.551Z,12
2017-03-09T07:44:11.118Z,12
2017-03-09T07:45:24.385Z,12
2017-03-09T07:46:37.100Z,12
2017-03-09T07:47:50.397Z,12
2017-03-09T07:49:03.685Z,12
2017-03-09T07:50:16.965Z,12
2017-03-09T07:52:56.921Z,12
2017-03-09T07:54:10.203Z,12
2017-03-09T07:55:23.225Z,12
2017-03-09T07:56:35.940Z,12
2017-03-09T07:57:49.206Z,12
2017-03-09T07:59:01.915Z,12
2017-03-09T08:00:14.650Z,12
2017-03-09T08:01:27.356Z,12
2017-03-09T08:02:40.624Z,12
2017-03-09T08:04:07.870Z,12
2017-03-09T08:05:35.146Z,12
2017-03-09T08:06:48.452Z,12
2017-03-09T08:08:15.711Z,12
2017-03-09T08:09:28.999Z,12
2017-03-09T08:10:42.587Z,12
2017-03-09T08:11:55.873Z,12
2017-03-09T08:13:09.142Z,12
2017-03-09T08:14:21.846Z,8
2017-03-09T08:15:35.327Z,8
2017-03-09T08:16:48.615Z,8
2017-03-09T08:18:01.911Z,12
2017-03-09T08:19:15.191Z,12
2017-03-09T08:20:27.895Z,12
2017-03-09T08:21:40.919Z,8
2017-03-09T08:22:53.630Z,8
2017-03-09T08:24:06.916Z,8
2017-03-09T08:25:20.200Z,12
2017-03-09T08:26:32.915Z,8
2017-03-09T08:27:46.214Z,8
2017-03-09T08:29:13.478Z,8
2017-03-09T08:30:26.206Z,8
2017-03-09T08:31:39.716Z,12
2017-03-09T08:32:53.001Z,12
2017-03-09T08:34:06.270Z,8
2017-03-09T08:35:19.564Z,12
2017-03-09T08:36:32.858Z,12
2017-03-09T08:40:19.820Z,8
2017-03-09T08:41:33.118Z,8
2017-03-09T08:42:46.407Z,12
2017-03-09T08:43:59.672Z,12
2017-03-09T08:45:12.979Z,12
2017-03-09T08:47:36.406Z,12
2017-03-09T08:49:03.859Z,12
2017-03-09T08:50:17.151Z,12
2017-03-09T08:51:30.441Z,12
2017-03-09T08:52:43.184Z,12
2017-03-09T08:53:56.692Z,12
2017-03-09T08:55:09.958Z,12
2017-03-09T08:56:23.241Z,16
2017-03-09T08:57:36.551Z,12
2017-03-09T08:58:49.831Z,16
2017-03-09T09:00:03.311Z,16
2017-03-09T09:01:16.616Z,20
2017-03-09T09:02:29.897Z,20
2017-03-09T09:03:43.184Z,20
2017-03-09T09:04:56.673Z,12
2017-03-09T09:06:09.383Z,16
2017-03-09T09:07:22.656Z,16
2017-03-09T09:08:35.939Z,16
2017-03-09T09:09:49.250Z,16
2017-03-09T09:11:02.835Z,20
2017-03-09T09:12:16.108Z,24
2017-03-09T09:13:29.399Z,24
2017-03-09T09:16:09.141Z,32
2017-03-09T09:17:22.417Z,36
2017-03-09T09:18:35.687Z,40
2017-03-09T09:19:48.433Z,44
2017-03-09T09:21:01.911Z,48
2017-03-09T09:22:15.198Z,48
2017-03-09T09:23:28.487Z,48
2017-03-09T09:24:41.181Z,52
2017-03-09T09:25:54.464Z,60
2017-03-09T09:27:07.726Z,68
2017-03-09T09:28:21.006Z,80
2017-03-09T09:29:34.286Z,88
2017-03-09T09:30:47.578Z,76
2017-03-09T09:32:00.304Z,80
2017-03-09T09:33:13.601Z,84
2017-03-09T09:34:26.864Z,92
2017-03-09T09:35:39.570Z,92
2017-03-09T09:36:52.840Z,92
2017-03-09T09:38:06.140Z,96
2017-03-09T09:39:19.405Z,100
2017-03-09T09:40:32.698Z,116
2017-03-09T09:41:45.963Z,120
2017-03-09T09:42:59.248Z,112
2017-03-09T09:44:12.530Z,108
2017-03-09T09:45:25.255Z,112
2017-03-09T09:46:38.534Z,132
2017-03-09T09:47:51.799Z,152
2017-03-09T09:49:19.262Z,164
2017-03-09T09:50:31.977Z,152
2017-03-09T09:51:45.252Z,168
2017-03-09T09:52:58.525Z,172
2017-03-09T09:54:10.661Z,156
2017-03-09T09:55:23.940Z,176
2017-03-09T09:56:36.649Z,184
2017-03-09T09:57:49.920Z,188
2017-03-09T09:59:02.635Z,192
2017-03-09T10:00:15.371Z,172
2017-03-09T10:01:28.096Z,188
2017-03-09T10:02:41.364Z,232
2017-03-09T10:03:54.650Z,208
2017-03-09T10:05:08.131Z,212
2017-03-09T10:06:20.852Z,268
2017-03-09T10:07:34.131Z,256
2017-03-09T10:08:47.412Z,284
2017-03-09T10:10:00.699Z,276
2017-03-09T10:11:14.281Z,260
2017-03-09T10:12:55.507Z,276
2017-03-09T10:14:08.787Z,264
2017-03-09T10:15:22.061Z,244
2017-03-09T10:16:35.662Z,256
2017-03-09T10:17:48.378Z,280
2017-03-09T10:19:01.680Z,268
2017-03-09T10:20:14.956Z,276
2017-03-09T10:21:27.681Z,288
2017-03-09T10:22:40.969Z,300
2017-03-09T10:23:54.250Z,296
2017-03-09T10:25:07.573Z,324
2017-03-09T10:26:20.290Z,324
2017-03-09T10:27:33.565Z,352
2017-03-09T10:28:46.848Z,368
2017-03-09T10:30:00.145Z,324
2017-03-09T10:31:13.438Z,332
2017-03-09T10:32:26.736Z,360
2017-03-09T10:33:53.982Z,316
2017-03-09T10:35:07.266Z,312
2017-03-09T10:36:20.002Z,360
2017-03-09T10:37:47.255Z,316
2017-03-09T10:39:00.571Z,288
2017-03-09T10:40:13.842Z,292
2017-03-09T10:41:27.127Z,292
2017-03-09T10:42:40.434Z,260
2017-03-09T10:43:53.745Z,284
2017-03-09T10:45:07.050Z,268
2017-03-09T10:46:20.333Z,256
2017-03-09T10:47:33.610Z,256
2017-03-09T10:48:47.326Z,268
2017-03-09T10:50:00.911Z,268
2017-03-09T10:51:14.423Z,272
2017-03-09T10:52:27.369Z,292
2017-03-09T10:53:41.079Z,264
2017-03-09T10:56:21.010Z,260
2017-03-09T10:57:34.636Z,292
2017-03-09T10:58:48.200Z,272
2017-03-09T11:01:29.150Z,284
2017-03-09T11:02:42.450Z,288
2017-03-09T11:03:55.508Z,284
2017-03-09T11:05:08.793Z,300
2017-03-09T11:06:22.085Z,284
2017-03-09T11:07:35.389Z,280
2017-03-09T11:08:48.682Z,292
2017-03-09T11:10:01.969Z,300
2017-03-09T11:11:14.671Z,296
2017-03-09T11:13:55.370Z,340
2017-03-09T11:15:08.109Z,376
2017-03-09T11:16:21.401Z,428
2017-03-09T11:17:34.106Z,440
2017-03-09T11:18:47.374Z,408
2017-03-09T11:21:27.325Z,344
2017-03-09T11:22:54.599Z,316
2017-03-09T11:24:07.900Z,284
2017-03-09T11:25:21.368Z,260
2017-03-09T11:26:34.641Z,304
2017-03-09T11:27:47.352Z,332
2017-03-09T11:29:00.622Z,340
2017-03-09T11:30:27.887Z,360
2017-03-09T11:31:41.175Z,360
2017-03-09T11:32:54.453Z,364
2017-03-09T11:34:07.731Z,348
2017-03-09T11:35:21.028Z,328
2017-03-09T11:38:01.769Z,332
2017-03-09T11:39:29.035Z,336
2017-03-09T11:40:41.757Z,348
2017-03-09T11:41:55.092Z,360
2017-03-09T11:43:22.342Z,372
2017-03-09T11:44:35.111Z,376
2017-03-09T11:45:48.443Z,380
2017-03-09T11:47:02.082Z,368
2017-03-09T11:48:29.340Z,360
2017-03-09T11:49:42.622Z,356
2017-03-09T11:50:55.360Z,352
2017-03-09T11:52:08.651Z,352
2017-03-09T11:53:35.920Z,372
2017-03-09T11:54:48.638Z,408
2017-03-09T11:56:01.933Z,408
2017-03-09T11:57:15.431Z,424
2017-03-09T11:58:28.193Z,420
2017-03-09T11:59:54.876Z,380
2017-03-09T12:01:08.158Z,368
2017-03-09T12:02:21.465Z,372
2017-03-09T12:03:34.754Z,392
2017-03-09T12:04:48.054Z,408
2017-03-09T12:06:01.330Z,428
2017-03-09T12:07:14.815Z,432
2017-03-09T12:08:28.119Z,440
2017-03-09T12:09:40.838Z,452
2017-03-09T12:10:53.569Z,488
2017-03-09T12:12:07.086Z,452
2017-03-09T12:13:20.390Z,448
2017-03-09T12:14:48.077Z,480
2017-03-09T12:16:14.787Z,444
2017-03-09T12:17:28.094Z,504
2017-03-09T12:18:40.799Z,536
2017-03-09T12:19:54.089Z,484
2017-03-09T12:21:07.433Z,468
2017-03-09T12:22:20.733Z,456
2017-03-09T12:23:33.919Z,460
2017-03-09T12:24:47.210Z,500
2017-03-09T12:26:00.642Z,492
2017-03-09T12:27:13.476Z,472
2017-03-09T12:28:26.449Z,512
2017-03-09T12:29:39.965Z,636
2017-03-09T12:30:53.465Z,688
2017-03-09T12:33:47.866Z,900
2017-03-09T12:35:15.225Z,1040
2017-03-09T12:36:28.190Z,1156
2017-03-09T12:37:41.113Z,1252
2017-03-09T12:38:54.646Z,1308
2017-03-09T12:40:07.557Z,1372
2017-03-09T12:41:21.107Z,1440
2017-03-09T12:42:34.634Z,1484
2017-03-09T12:43:48.089Z,1388
2017-03-09T12:45:01.403Z,1536
2017-03-09T12:46:14.708Z,1552
2017-03-09T12:47:27.427Z,1612
2017-03-09T12:48:40.151Z,1624
2017-03-09T12:49:53.449Z,1608
2017-03-09T12:51:06.357Z,1600
2017-03-09T12:52:19.064Z,1676
2017-03-09T12:53:31.792Z,1740
2017-03-09T12:54:45.054Z,1628
2017-03-09T12:55:58.328Z,1776
2017-03-09T12:57:11.844Z,1852
2017-03-09T12:58:25.146Z,1876
2017-03-09T12:59:37.846Z,1792
2017-03-09T13:00:51.141Z,1956
2017-03-09T13:02:04.715Z,1988
2017-03-09T13:03:17.994Z,1964
2017-03-09T13:04:31.267Z,2036
2017-03-09T13:05:43.982Z,2068
2017-03-09T13:06:57.249Z,2076
2017-03-09T13:08:10.538Z,2140
2017-03-09T13:09:23.832Z,2148
2017-03-09T13:10:36.553Z,2164
2017-03-09T13:12:04.101Z,2188
2017-03-09T13:13:17.404Z,2092
2017-03-09T13:14:44.671Z,2044
2017-03-09T13:15:57.948Z,832
2017-03-09T13:17:10.667Z,2124
2017-03-09T13:18:23.943Z,2232
2017-03-09T13:19:50.664Z,616
2017-03-09T13:21:03.936Z,2208
2017-03-09T13:22:16.662Z,2164
2017-03-09T13:23:29.979Z,2276
2017-03-09T13:24:56.678Z,2216
2017-03-09T13:26:09.420Z,2216
2017-03-09T13:27:22.734Z,2108
2017-03-09T13:28:36.029Z,2244
2017-03-09T13:30:03.499Z,2176
2017-03-09T13:31:29.634Z,2112
2017-03-09T13:32:42.931Z,2184
2017-03-09T13:33:56.239Z,2156
2017-03-09T13:35:10.303Z,2172
2017-03-09T13:36:23.683Z,2188
2017-03-09T13:37:36.612Z,2168
2017-03-09T13:38:49.927Z,2136
2017-03-09T13:40:03.251Z,2148
2017-03-09T13:41:15.973Z,2200
2017-03-09T13:42:28.705Z,2168
2017-03-09T13:43:42.021Z,2164
2017-03-09T13:44:54.725Z,2164
2017-03-09T13:46:21.411Z,2208
2017-03-09T13:47:34.711Z,948
2017-03-09T13:48:47.447Z,2228
2017-03-09T13:50:00.804Z,2288
2017-03-09T13:51:14.255Z,2264
2017-03-09T13:52:26.961Z,2240
2017-03-09T13:53:54.245Z,1548
2017-03-09T13:55:07.533Z,652
2017-03-09T13:56:20.858Z,2276
2017-03-09T13:57:34.155Z,1292
2017-03-09T13:59:02.013Z,2240
2017-03-09T14:00:16.196Z,2264
2017-03-09T14:01:29.509Z,2336
2017-03-09T14:02:43.095Z,2320
2017-03-09T14:03:56.430Z,2220
2017-03-09T14:05:23.731Z,2380
2017-03-09T14:06:36.497Z,2204
2017-03-09T14:08:03.240Z,2268
2017-03-09T14:09:30.541Z,2312
2017-03-09T14:10:43.846Z,2008
2017-03-09T14:11:55.991Z,2348
2017-03-09T14:14:36.681Z,2320
2017-03-09T14:15:50.060Z,2372
2017-03-09T14:17:03.463Z,2276
2017-03-09T14:18:17.412Z,2204
2017-03-09T14:19:30.588Z,2232
2017-03-09T14:20:44.820Z,2212
2017-03-09T14:21:59.353Z,2304
2017-03-09T14:23:13.322Z,2288
2017-03-09T14:24:26.064Z,2400
2017-03-09T14:25:39.352Z,2396
2017-03-09T14:26:52.935Z,2392
2017-03-09T14:28:06.222Z,2440
2017-03-09T14:29:19.549Z,1740
2017-03-09T14:30:32.835Z,2400
2017-03-09T14:31:46.141Z,2552
2017-03-09T14:32:59.464Z,2520
2017-03-09T14:34:12.780Z,2420
2017-03-09T14:35:26.077Z,2484
2017-03-09T14:36:38.822Z,2072
2017-03-09T14:37:52.133Z,2228
2017-03-09T14:39:05.422Z,2520
2017-03-09T14:40:18.149Z,1976
2017-03-09T14:41:30.902Z,2460
2017-03-09T14:42:58.416Z,1884
2017-03-09T14:45:39.019Z,1916
2017-03-09T14:46:52.302Z,1644
2017-03-09T14:48:05.606Z,1396
2017-03-09T14:49:32.874Z,1756
2017-03-09T14:51:00.138Z,812
2017-03-09T14:52:13.427Z,1336
2017-03-09T14:53:40.983Z,1516
2017-03-09T14:54:54.267Z,1964
2017-03-09T14:56:07.570Z,1708
2017-03-09T14:57:20.871Z,2340
2017-03-09T14:58:49.788Z,2372
2017-03-09T15:00:05.340Z,812
2017-03-09T15:01:18.624Z,792
2017-03-09T15:02:31.349Z,2248
2017-03-09T15:04:12.582Z,984
2017-03-09T15:05:25.896Z,1428
2017-03-09T15:06:56.646Z,2344
2017-03-09T15:08:09.958Z,2316
2017-03-09T15:09:37.223Z,2056
2017-03-09T15:10:50.514Z,2088
2017-03-09T15:12:03.819Z,2148
2017-03-09T15:13:16.556Z,2096
2017-03-09T15:14:30.765Z,2060
2017-03-09T15:15:44.084Z,1976
2017-03-09T15:16:56.816Z,1892
2017-03-09T15:18:09.561Z,2004
2017-03-09T15:19:22.303Z,1168
2017-03-09T15:20:35.633Z,1380
2017-03-09T15:21:48.946Z,2020
2017-03-09T15:23:02.501Z,2068
2017-03-09T15:24:15.313Z,2044
2017-03-09T15:25:27.708Z,2020
2017-03-09T15:26:54.436Z,2000
2017-03-09T15:28:07.721Z,1936
2017-03-09T15:29:21.022Z,804
2017-03-09T15:30:34.534Z,1844
2017-03-09T15:33:14.564Z,1336
2017-03-09T15:34:27.867Z,1636
2017-03-09T15:35:55.148Z,892
2017-03-09T15:37:07.888Z,860
2017-03-09T15:38:20.648Z,816
2017-03-09T15:39:33.391Z,1384
2017-03-09T15:40:46.155Z,1704
2017-03-09T15:42:13.753Z,1592
2017-03-09T15:43:27.071Z,1156
2017-03-09T15:44:39.789Z,1540
2017-03-09T15:45:53.519Z,864
2017-03-09T15:47:06.862Z,800
2017-03-09T15:48:20.175Z,1524
2017-03-09T15:49:47.443Z,928
2017-03-09T15:51:00.420Z,1504
2017-03-09T15:52:13.164Z,756
2017-03-09T15:53:26.455Z,1556
2017-03-09T15:54:39.789Z,1544
2017-03-09T15:55:53.279Z,1560
2017-03-09T15:57:06.593Z,1596
2017-03-09T15:58:19.902Z,932
2017-03-09T15:59:33.186Z,836
2017-03-09T16:00:46.493Z,776
2017-03-09T16:01:59.863Z,716
2017-03-09T16:03:12.590Z,628
2017-03-09T16:04:25.896Z,624
2017-03-09T16:05:39.209Z,652
2017-03-09T16:06:52.706Z,672
2017-03-09T16:08:06.033Z,648
2017-03-09T16:09:18.792Z,688
2017-03-09T16:10:32.149Z,1276
2017-03-09T16:11:45.453Z,1260
2017-03-09T16:12:58.803Z,1212
2017-03-09T16:14:12.125Z,1160
2017-03-09T16:15:24.883Z,1120
2017-03-09T16:16:38.192Z,1088
2017-03-09T16:17:51.702Z,1052
2017-03-09T16:19:05.036Z,1084
2017-03-09T16:20:18.343Z,1072
2017-03-09T16:21:31.096Z,1024
2017-03-09T16:22:44.429Z,1004
2017-03-09T16:23:57.784Z,972
2017-03-09T16:25:11.100Z,992
2017-03-09T16:26:24.399Z,788
2017-03-09T16:27:37.827Z,996
2017-03-09T16:28:51.252Z,1032
2017-03-09T16:30:03.997Z,972
2017-03-09T16:31:17.296Z,956
2017-03-09T16:32:30.040Z,916
2017-03-09T16:33:42.785Z,868
2017-03-09T16:34:56.125Z,864
2017-03-09T16:36:09.425Z,848
2017-03-09T16:37:21.614Z,704
2017-03-09T16:38:34.945Z,824
2017-03-09T16:39:48.242Z,792
2017-03-09T16:41:01.549Z,804
2017-03-09T16:42:14.327Z,792
2017-03-09T16:43:27.653Z,768
2017-03-09T16:46:22.268Z,744
2017-03-09T16:47:33.943Z,724
2017-03-09T16:49:01.310Z,480
2017-03-09T16:50:14.270Z,508
2017-03-09T16:51:27.005Z,620
2017-03-09T16:52:40.310Z,540
2017-03-09T16:53:53.086Z,792
2017-03-09T16:55:06.411Z,804
2017-03-09T16:56:19.730Z,820
2017-03-09T16:57:33.062Z,812
2017-03-09T16:58:46.370Z,720
2017-03-09T16:59:59.697Z,796
2017-03-09T17:01:12.468Z,812
2017-03-09T17:02:25.201Z,592
2017-03-09T17:03:37.941Z,660
2017-03-09T17:04:51.240Z,580
2017-03-09T17:06:04.550Z,772
2017-03-09T17:07:17.868Z,736
2017-03-09T17:08:31.176Z,712
2017-03-09T17:09:44.506Z,552
2017-03-09T17:10:57.253Z,544
2017-03-09T17:12:09.456Z,532
2017-03-09T17:13:22.220Z,528
2017-03-09T17:14:35.544Z,672
2017-03-09T17:15:48.848Z,768
2017-03-09T17:17:02.386Z,768
2017-03-09T17:18:15.785Z,736
2017-03-09T17:19:29.123Z,728
2017-03-09T17:20:41.860Z,732
2017-03-09T17:21:55.201Z,696
2017-03-09T17:23:08.711Z,524
2017-03-09T17:24:22.089Z,496
2017-03-09T17:25:34.551Z,540
2017-03-09T17:26:47.919Z,736
2017-03-09T17:28:01.635Z,744
2017-03-09T17:29:29.394Z,732
2017-03-09T17:30:43.089Z,684
2017-03-09T17:31:56.415Z,524
2017-03-09T17:33:23.687Z,700
2017-03-09T17:34:50.403Z,728
2017-03-09T17:36:03.732Z,524
2017-03-09T17:37:16.509Z,512
2017-03-09T17:38:29.483Z,508
2017-03-09T17:39:42.853Z,712
2017-03-09T17:40:56.180Z,728
2017-03-09T17:42:37.448Z,716
2017-03-09T17:43:50.981Z,692
2017-03-09T17:45:03.711Z,676
2017-03-09T17:46:16.446Z,664
2017-03-09T17:47:29.195Z,660
2017-03-09T17:48:42.727Z,652
2017-03-09T17:49:56.072Z,660
2017-03-09T17:51:08.822Z,656
2017-03-09T17:52:22.141Z,640
2017-03-09T17:53:34.916Z,656
2017-03-09T17:54:48.453Z,656
2017-03-09T17:56:15.730Z,664
2017-03-09T17:57:29.059Z,688
2017-03-09T17:58:41.835Z,688
2017-03-09T17:59:55.142Z,692
2017-03-09T18:01:08.476Z,652
2017-03-09T18:02:21.791Z,700
2017-03-09T18:03:49.078Z,724